Skip Navigation LinksHome page > Weather > Current weather Skip Navigation Links

Current Weather

Chicago O'Hare Intl, Chicago

For information only: do not use for flight planning or navigation.
Latest weather
Observation time Wednesday, September 28, 2016 11:51 PM CDT
Local time Thursday, September 29, 2016 12:07 AM CDT
Flight conditions Visual Meteorological Conditions
Winds
Wind direction North-Northeast (20°)
Wind speed 17 mph
Visibility 10 mi.
Sky condition
Ceiling 5,000 ft. broken clouds
Cloud layer few clouds 3,200 ft.
Cloud layer broken clouds 5,000 ft.
Cloud layer overcast 8,500 ft.
Temperature 59°F
Dewpoint 55°F
Altimeter 30.07 in.Hg
Precipitation
Rain ended 11:47 PM
Precipitation last hour 0.01 in.
Derived measurements
Relative humidity 87%
Density altitude 704 ft.
Sea-level pressure 30.07 in.Hg
Remarks
Automated weather observing station with precipitation discriminator.
METAR KORD 290451Z 02015KT 10SM FEW032 BKN050 OVC085 15/13 A3007 RMK AO2 RAE47 SLP183 P0001 T01500128

Settings

Location code

InnerDrive.Weather 4.0.5722.1 Release CLR 4.0.30319.34209
Copyright ©2015 Inner Drive Technology. All rights reserved. Portions Copyright ©1986-2015 David Braverman.

Find weather

Site navigation


Skip Navigation Links

Place info

Page info

PayPal - The safer, easier way to pay online!

Return home.

Copyright ©2016 Inner Drive Technology. Purveyors of fine, hand-crafted computer software. Page printed 2016-09-29T05:07:17 UTC.